sensor_id;sensor_type;location;lat;lon;timestamp;temperature;humidity
50570;DHT22;36525;49.398;7.614;2023-06-22T00:00:22;21.20;99.90
50570;DHT22;36525;49.398;7.614;2023-06-22T00:02:49;21.20;99.90
50570;DHT22;36525;49.398;7.614;2023-06-22T00:05:16;21.00;99.90
50570;DHT22;36525;49.398;7.614;2023-06-22T00:07:43;21.00;99.90
50570;DHT22;36525;49.398;7.614;2023-06-22T00:10:10;20.80;99.90
50570;DHT22;36525;49.398;7.614;2023-06-22T00:12:37;20.70;99.90
50570;DHT22;36525;49.398;7.614;2023-06-22T00:15:05;20.80;99.90
50570;DHT22;36525;49.398;7.614;2023-06-22T00:17:32;20.90;99.90
50570;DHT22;36525;49.398;7.614;2023-06-22T00:19:59;20.70;99.90
50570;DHT22;36525;49.398;7.614;2023-06-22T00:22:26;20.60;99.90
50570;DHT22;36525;49.398;7.614;2023-06-22T00:24:56;20.50;99.90
50570;DHT22;36525;49.398;7.614;2023-06-22T00:27:24;20.50;99.90
50570;DHT22;36525;49.398;7.614;2023-06-22T00:29:51;20.50;99.90
50570;DHT22;36525;49.398;7.614;2023-06-22T00:32:18;20.60;99.90
50570;DHT22;36525;49.398;7.614;2023-06-22T00:34:46;20.60;99.90
50570;DHT22;36525;49.398;7.614;2023-06-22T00:37:13;20.70;99.90
50570;DHT22;36525;49.398;7.614;2023-06-22T00:39:40;20.70;99.90
50570;DHT22;36525;49.398;7.614;2023-06-22T00:42:07;20.70;99.90
50570;DHT22;36525;49.398;7.614;2023-06-22T00:44:35;20.70;99.90
50570;DHT22;36525;49.398;7.614;2023-06-22T00:47:03;20.60;99.90
50570;DHT22;36525;49.398;7.614;2023-06-22T00:49:30;20.50;99.90
50570;DHT22;36525;49.398;7.614;2023-06-22T00:51:58;20.50;99.90
50570;DHT22;36525;49.398;7.614;2023-06-22T00:54:25;20.50;99.90
50570;DHT22;36525;49.398;7.614;2023-06-22T00:56:53;20.40;99.90
50570;DHT22;36525;49.398;7.614;2023-06-22T00:59:23;20.40;99.90
50570;DHT22;36525;49.398;7.614;2023-06-22T01:01:53;20.40;99.90
50570;DHT22;36525;49.398;7.614;2023-06-22T01:04:25;20.40;99.90
50570;DHT22;36525;49.398;7.614;2023-06-22T01:12:49;20.20;99.90
50570;DHT22;36525;49.398;7.614;2023-06-22T01:15:32;20.20;99.90
50570;DHT22;36525;49.398;7.614;2023-06-22T01:18:04;20.20;99.90
50570;DHT22;36525;49.398;7.614;2023-06-22T01:20:34;20.20;99.90
50570;DHT22;36525;49.398;7.614;2023-06-22T01:23:42;20.10;99.90
50570;DHT22;36525;49.398;7.614;2023-06-22T01:26:57;20.00;99.90
50570;DHT22;36525;49.398;7.614;2023-06-22T01:29:28;19.90;99.90
50570;DHT22;36525;49.398;7.614;2023-06-22T01:31:57;19.90;99.90
50570;DHT22;36525;49.398;7.614;2023-06-22T01:34:24;19.90;99.90
50570;DHT22;36525;49.398;7.614;2023-06-22T01:36:53;19.80;99.90
50570;DHT22;36525;49.398;7.614;2023-06-22T01:39:21;19.80;99.90
50570;DHT22;36525;49.398;7.614;2023-06-22T01:41:49;19.90;99.90
50570;DHT22;36525;49.398;7.614;2023-06-22T01:44:17;19.90;99.90
50570;DHT22;36525;49.398;7.614;2023-06-22T01:46:45;19.90;99.90
50570;DHT22;36525;49.398;7.614;2023-06-22T01:49:12;19.90;99.90
50570;DHT22;36525;49.398;7.614;2023-06-22T01:51:40;19.90;99.90
50570;DHT22;36525;49.398;7.614;2023-06-22T01:54:07;19.90;99.90
50570;DHT22;36525;49.398;7.614;2023-06-22T01:56:35;20.00;99.90
50570;DHT22;36525;49.398;7.614;2023-06-22T01:59:24;20.00;99.90
50570;DHT22;36525;49.398;7.614;2023-06-22T02:02:07;20.00;99.90
50570;DHT22;36525;49.398;7.614;2023-06-22T02:04:46;20.00;99.90
50570;DHT22;36525;49.398;7.614;2023-06-22T02:07:18;20.00;99.90
50570;DHT22;36525;49.398;7.614;2023-06-22T02:09:47;19.90;99.90
50570;DHT22;36525;49.398;7.614;2023-06-22T02:12:18;19.90;99.90
50570;DHT22;36525;49.398;7.614;2023-06-22T02:14:50;19.90;99.90
50570;DHT22;36525;49.398;7.614;2023-06-22T02:17:18;19.80;99.90
50570;DHT22;36525;49.398;7.614;2023-06-22T02:19:45;19.80;99.90
50570;DHT22;36525;49.398;7.614;2023-06-22T02:22:12;19.80;99.90
50570;DHT22;36525;49.398;7.614;2023-06-22T02:24:40;19.80;99.90
50570;DHT22;36525;49.398;7.614;2023-06-22T02:27:07;19.80;99.90
50570;DHT22;36525;49.398;7.614;2023-06-22T02:29:34;19.70;99.90
50570;DHT22;36525;49.398;7.614;2023-06-22T02:32:02;19.60;99.90
50570;DHT22;36525;49.398;7.614;2023-06-22T02:34:31;19.50;99.90
50570;DHT22;36525;49.398;7.614;2023-06-22T02:37:04;19.40;99.90
50570;DHT22;36525;49.398;7.614;2023-06-22T02:39:32;19.40;99.90
50570;DHT22;36525;49.398;7.614;2023-06-22T02:42:00;19.40;99.90
50570;DHT22;36525;49.398;7.614;2023-06-22T02:44:27;19.30;99.90
50570;DHT22;36525;49.398;7.614;2023-06-22T02:46:54;19.20;99.90
50570;DHT22;36525;49.398;7.614;2023-06-22T02:49:22;19.20;99.90
50570;DHT22;36525;49.398;7.614;2023-06-22T02:51:50;19.20;99.90
50570;DHT22;36525;49.398;7.614;2023-06-22T02:54:17;19.10;99.90
50570;DHT22;36525;49.398;7.614;2023-06-22T02:56:44;19.10;99.90
50570;DHT22;36525;49.398;7.614;2023-06-22T02:59:11;19.10;99.90
50570;DHT22;36525;49.398;7.614;2023-06-22T03:01:38;19.10;99.90
50570;DHT22;36525;49.398;7.614;2023-06-22T03:04:12;19.10;99.90
50570;DHT22;36525;49.398;7.614;2023-06-22T03:06:40;19.10;99.90
50570;DHT22;36525;49.398;7.614;2023-06-22T03:09:07;19.00;99.90
50570;DHT22;36525;49.398;7.614;2023-06-22T03:11:34;19.00;99.90
50570;DHT22;36525;49.398;7.614;2023-06-22T03:14:02;19.10;99.90
50570;DHT22;36525;49.398;7.614;2023-06-22T03:16:29;19.10;99.90
50570;DHT22;36525;49.398;7.614;2023-06-22T03:18:56;19.10;99.90
50570;DHT22;36525;49.398;7.614;2023-06-22T03:21:23;19.10;99.90
50570;DHT22;36525;49.398;7.614;2023-06-22T03:23:51;19.00;99.90
50570;DHT22;36525;49.398;7.614;2023-06-22T03:26:18;19.00;99.90
50570;DHT22;36525;49.398;7.614;2023-06-22T03:28:46;19.10;99.90
50570;DHT22;36525;49.398;7.614;2023-06-22T03:31:13;19.10;99.90
50570;DHT22;36525;49.398;7.614;2023-06-22T03:33:41;19.10;99.90
50570;DHT22;36525;49.398;7.614;2023-06-22T03:36:08;19.10;99.90
50570;DHT22;36525;49.398;7.614;2023-06-22T03:38:35;19.00;99.90
50570;DHT22;36525;49.398;7.614;2023-06-22T03:41:02;19.10;99.90
50570;DHT22;36525;49.398;7.614;2023-06-22T03:43:29;19.00;99.90
50570;DHT22;36525;49.398;7.614;2023-06-22T03:45:56;19.00;99.90
50570;DHT22;36525;49.398;7.614;2023-06-22T03:48:23;18.90;99.90
50570;DHT22;36525;49.398;7.614;2023-06-22T03:50:50;18.90;99.90
50570;DHT22;36525;49.398;7.614;2023-06-22T03:53:17;18.90;99.90
50570;DHT22;36525;49.398;7.614;2023-06-22T03:55:49;18.90;99.90
50570;DHT22;36525;49.398;7.614;2023-06-22T03:58:18;19.00;99.90
50570;DHT22;36525;49.398;7.614;2023-06-22T04:00:52;19.00;99.90
50570;DHT22;36525;49.398;7.614;2023-06-22T04:03:20;19.00;99.90
50570;DHT22;36525;49.398;7.614;2023-06-22T04:05:48;19.00;99.90
50570;DHT22;36525;49.398;7.614;2023-06-22T04:08:15;19.00;99.90
50570;DHT22;36525;49.398;7.614;2023-06-22T04:10:43;19.00;99.90
50570;DHT22;36525;49.398;7.614;2023-06-22T04:13:10;19.10;99.90
50570;DHT22;36525;49.398;7.614;2023-06-22T04:15:37;19.10;99.90
50570;DHT22;36525;49.398;7.614;2023-06-22T04:18:05;19.10;99.90
50570;DHT22;36525;49.398;7.614;2023-06-22T04:20:32;19.10;99.90
50570;DHT22;36525;49.398;7.614;2023-06-22T04:22:59;19.20;99.90
50570;DHT22;36525;49.398;7.614;2023-06-22T04:25:27;19.20;99.90
50570;DHT22;36525;49.398;7.614;2023-06-22T04:27:54;19.20;99.90
50570;DHT22;36525;49.398;7.614;2023-06-22T04:30:21;19.20;99.90
50570;DHT22;36525;49.398;7.614;2023-06-22T04:32:48;19.20;99.90
50570;DHT22;36525;49.398;7.614;2023-06-22T04:35:25;19.20;99.90
50570;DHT22;36525;49.398;7.614;2023-06-22T04:37:53;19.30;99.90
50570;DHT22;36525;49.398;7.614;2023-06-22T04:40:23;19.40;99.90
50570;DHT22;36525;49.398;7.614;2023-06-22T04:42:50;19.50;99.90
50570;DHT22;36525;49.398;7.614;2023-06-22T04:45:21;19.60;99.90
50570;DHT22;36525;49.398;7.614;2023-06-22T04:47:48;19.60;99.90
50570;DHT22;36525;49.398;7.614;2023-06-22T04:50:16;19.70;99.90
50570;DHT22;36525;49.398;7.614;2023-06-22T04:52:44;19.70;99.90
50570;DHT22;36525;49.398;7.614;2023-06-22T04:55:12;19.80;99.90
50570;DHT22;36525;49.398;7.614;2023-06-22T04:57:41;19.80;99.90
50570;DHT22;36525;49.398;7.614;2023-06-22T05:00:18;19.90;99.90
50570;DHT22;36525;49.398;7.614;2023-06-22T05:02:46;20.00;99.90
50570;DHT22;36525;49.398;7.614;2023-06-22T05:05:15;20.10;99.90
50570;DHT22;36525;49.398;7.614;2023-06-22T05:07:44;20.10;99.90
50570;DHT22;36525;49.398;7.614;2023-06-22T05:10:15;20.20;99.90
50570;DHT22;36525;49.398;7.614;2023-06-22T05:12:42;20.30;99.90
50570;DHT22;36525;49.398;7.614;2023-06-22T05:15:10;20.30;99.90
50570;DHT22;36525;49.398;7.614;2023-06-22T05:17:37;20.30;99.90
50570;DHT22;36525;49.398;7.614;2023-06-22T05:20:11;20.30;99.90
50570;DHT22;36525;49.398;7.614;2023-06-22T05:22:42;20.30;99.90
50570;DHT22;36525;49.398;7.614;2023-06-22T05:25:11;20.30;99.90
50570;DHT22;36525;49.398;7.614;2023-06-22T05:27:38;20.40;99.90
50570;DHT22;36525;49.398;7.614;2023-06-22T05:30:07;20.50;99.90
50570;DHT22;36525;49.398;7.614;2023-06-22T05:32:38;20.60;99.90
50570;DHT22;36525;49.398;7.614;2023-06-22T05:35:05;20.70;99.90
50570;DHT22;36525;49.398;7.614;2023-06-22T05:37:33;20.80;99.90
50570;DHT22;36525;49.398;7.614;2023-06-22T05:40:00;20.90;99.90
50570;DHT22;36525;49.398;7.614;2023-06-22T05:42:28;20.90;99.90
50570;DHT22;36525;49.398;7.614;2023-06-22T05:44:55;21.00;99.90
50570;DHT22;36525;49.398;7.614;2023-06-22T05:47:22;21.10;99.90
50570;DHT22;36525;49.398;7.614;2023-06-22T05:49:49;21.00;99.90
50570;DHT22;36525;49.398;7.614;2023-06-22T05:52:16;21.00;99.90
50570;DHT22;36525;49.398;7.614;2023-06-22T05:54:44;21.00;99.90
50570;DHT22;36525;49.398;7.614;2023-06-22T05:57:11;21.00;99.90
50570;DHT22;36525;49.398;7.614;2023-06-22T05:59:38;21.10;99.90
50570;DHT22;36525;49.398;7.614;2023-06-22T06:02:05;21.20;99.90
50570;DHT22;36525;49.398;7.614;2023-06-22T06:04:33;21.20;99.90
50570;DHT22;36525;49.398;7.614;2023-06-22T06:07:00;21.30;99.90
50570;DHT22;36525;49.398;7.614;2023-06-22T06:09:27;21.30;99.90
50570;DHT22;36525;49.398;7.614;2023-06-22T06:11:54;21.30;99.90
50570;DHT22;36525;49.398;7.614;2023-06-22T06:14:22;21.40;99.90
50570;DHT22;36525;49.398;7.614;2023-06-22T06:16:49;21.40;99.90
50570;DHT22;36525;49.398;7.614;2023-06-22T06:19:16;21.40;99.90
50570;DHT22;36525;49.398;7.614;2023-06-22T06:21:43;21.50;99.90
50570;DHT22;36525;49.398;7.614;2023-06-22T06:24:11;21.60;99.90
50570;DHT22;36525;49.398;7.614;2023-06-22T06:26:38;21.80;99.90
50570;DHT22;36525;49.398;7.614;2023-06-22T06:29:08;21.80;99.90
50570;DHT22;36525;49.398;7.614;2023-06-22T06:31:35;21.90;99.90
50570;DHT22;36525;49.398;7.614;2023-06-22T06:34:02;22.00;99.90
50570;DHT22;36525;49.398;7.614;2023-06-22T06:36:30;22.00;99.90
50570;DHT22;36525;49.398;7.614;2023-06-22T06:38:57;22.10;99.90
50570;DHT22;36525;49.398;7.614;2023-06-22T06:41:27;22.20;99.90
50570;DHT22;36525;49.398;7.614;2023-06-22T06:43:54;22.20;99.90
50570;DHT22;36525;49.398;7.614;2023-06-22T06:46:21;22.20;99.90
50570;DHT22;36525;49.398;7.614;2023-06-22T06:48:48;22.40;99.90
50570;DHT22;36525;49.398;7.614;2023-06-22T06:51:15;22.60;99.90
50570;DHT22;36525;49.398;7.614;2023-06-22T06:53:42;22.60;99.90
50570;DHT22;36525;49.398;7.614;2023-06-22T06:56:09;22.70;99.90
50570;DHT22;36525;49.398;7.614;2023-06-22T06:58:40;22.80;99.90
50570;DHT22;36525;49.398;7.614;2023-06-22T07:01:09;22.90;99.90
50570;DHT22;36525;49.398;7.614;2023-06-22T07:03:36;23.10;99.90
50570;DHT22;36525;49.398;7.614;2023-06-22T07:06:03;23.20;99.90
50570;DHT22;36525;49.398;7.614;2023-06-22T07:08:30;23.20;99.90
50570;DHT22;36525;49.398;7.614;2023-06-22T07:10:57;23.30;99.90
50570;DHT22;36525;49.398;7.614;2023-06-22T07:13:24;23.30;99.90
50570;DHT22;36525;49.398;7.614;2023-06-22T07:15:52;23.30;99.90
50570;DHT22;36525;49.398;7.614;2023-06-22T07:18:19;23.40;99.90
50570;DHT22;36525;49.398;7.614;2023-06-22T07:20:46;23.40;99.90
50570;DHT22;36525;49.398;7.614;2023-06-22T07:23:14;23.50;99.90
50570;DHT22;36525;49.398;7.614;2023-06-22T07:25:41;23.70;99.90
50570;DHT22;36525;49.398;7.614;2023-06-22T07:28:08;23.80;99.90
50570;DHT22;36525;49.398;7.614;2023-06-22T07:30:36;23.90;99.90
50570;DHT22;36525;49.398;7.614;2023-06-22T07:33:03;24.10;99.90
50570;DHT22;36525;49.398;7.614;2023-06-22T07:35:31;24.00;99.90
50570;DHT22;36525;49.398;7.614;2023-06-22T07:37:59;24.00;99.90
50570;DHT22;36525;49.398;7.614;2023-06-22T07:40:31;24.00;99.90
50570;DHT22;36525;49.398;7.614;2023-06-22T07:42:58;24.00;99.90
50570;DHT22;36525;49.398;7.614;2023-06-22T07:45:25;24.10;99.90
50570;DHT22;36525;49.398;7.614;2023-06-22T07:47:52;24.20;99.90
50570;DHT22;36525;49.398;7.614;2023-06-22T07:50:20;24.30;99.90
50570;DHT22;36525;49.398;7.614;2023-06-22T07:52:47;24.50;99.90
50570;DHT22;36525;49.398;7.614;2023-06-22T07:55:14;24.50;99.90
50570;DHT22;36525;49.398;7.614;2023-06-22T07:57:42;24.70;99.90
50570;DHT22;36525;49.398;7.614;2023-06-22T08:00:09;24.80;99.90
50570;DHT22;36525;49.398;7.614;2023-06-22T08:02:42;24.80;99.90
50570;DHT22;36525;49.398;7.614;2023-06-22T08:05:11;24.80;99.90
50570;DHT22;36525;49.398;7.614;2023-06-22T08:07:58;24.90;99.90
50570;DHT22;36525;49.398;7.614;2023-06-22T08:10:26;25.10;99.90
50570;DHT22;36525;49.398;7.614;2023-06-22T08:12:53;25.40;99.90
50570;DHT22;36525;49.398;7.614;2023-06-22T08:15:20;25.60;99.90
50570;DHT22;36525;49.398;7.614;2023-06-22T08:17:48;25.70;99.90
50570;DHT22;36525;49.398;7.614;2023-06-22T08:20:16;25.80;99.90
50570;DHT22;36525;49.398;7.614;2023-06-22T08:22:43;25.80;99.90
50570;DHT22;36525;49.398;7.614;2023-06-22T08:25:11;25.80;99.90
50570;DHT22;36525;49.398;7.614;2023-06-22T08:27:39;26.30;99.90
50570;DHT22;36525;49.398;7.614;2023-06-22T08:30:08;26.70;99.90
50570;DHT22;36525;49.398;7.614;2023-06-22T08:32:38;26.60;99.90
50570;DHT22;36525;49.398;7.614;2023-06-22T08:35:05;26.50;99.90
50570;DHT22;36525;49.398;7.614;2023-06-22T08:37:36;26.50;99.90
50570;DHT22;36525;49.398;7.614;2023-06-22T08:40:05;26.50;99.90
50570;DHT22;36525;49.398;7.614;2023-06-22T08:42:36;26.40;99.90
50570;DHT22;36525;49.398;7.614;2023-06-22T08:45:03;26.40;99.90
50570;DHT22;36525;49.398;7.614;2023-06-22T08:47:31;26.40;99.90
50570;DHT22;36525;49.398;7.614;2023-06-22T08:49:58;26.30;99.90
50570;DHT22;36525;49.398;7.614;2023-06-22T08:52:26;26.50;99.90
50570;DHT22;36525;49.398;7.614;2023-06-22T08:54:53;26.50;99.90
50570;DHT22;36525;49.398;7.614;2023-06-22T08:57:21;26.70;99.90
50570;DHT22;36525;49.398;7.614;2023-06-22T08:59:48;26.80;99.90
50570;DHT22;36525;49.398;7.614;2023-06-22T09:02:15;26.80;99.90
50570;DHT22;36525;49.398;7.614;2023-06-22T09:04:43;27.10;99.90
50570;DHT22;36525;49.398;7.614;2023-06-22T09:07:11;27.40;99.90
50570;DHT22;36525;49.398;7.614;2023-06-22T09:09:38;27.70;99.90
50570;DHT22;36525;49.398;7.614;2023-06-22T09:12:05;27.90;99.90
50570;DHT22;36525;49.398;7.614;2023-06-22T09:14:33;27.80;99.90
50570;DHT22;36525;49.398;7.614;2023-06-22T09:17:00;27.70;99.90
50570;DHT22;36525;49.398;7.614;2023-06-22T09:19:27;27.60;99.90
50570;DHT22;36525;49.398;7.614;2023-06-22T09:21:55;27.80;99.90
50570;DHT22;36525;49.398;7.614;2023-06-22T09:24:22;28.20;99.90
50570;DHT22;36525;49.398;7.614;2023-06-22T09:26:49;28.80;99.90
50570;DHT22;36525;49.398;7.614;2023-06-22T09:29:17;29.50;99.90
50570;DHT22;36525;49.398;7.614;2023-06-22T09:31:44;30.20;99.90
50570;DHT22;36525;49.398;7.614;2023-06-22T09:34:11;30.70;99.90
50570;DHT22;36525;49.398;7.614;2023-06-22T09:36:38;31.20;99.90
50570;DHT22;36525;49.398;7.614;2023-06-22T09:39:07;31.90;99.90
50570;DHT22;36525;49.398;7.614;2023-06-22T09:41:34;32.20;99.90
50570;DHT22;36525;49.398;7.614;2023-06-22T09:44:01;32.60;99.90
50570;DHT22;36525;49.398;7.614;2023-06-22T09:46:28;32.70;99.90
50570;DHT22;36525;49.398;7.614;2023-06-22T09:48:56;32.40;99.90
50570;DHT22;36525;49.398;7.614;2023-06-22T09:51:23;32.60;99.90
50570;DHT22;36525;49.398;7.614;2023-06-22T09:53:51;32.60;99.90
50570;DHT22;36525;49.398;7.614;2023-06-22T09:56:20;33.00;99.90
50570;DHT22;36525;49.398;7.614;2023-06-22T09:58:47;33.00;99.90
50570;DHT22;36525;49.398;7.614;2023-06-22T10:01:18;32.80;99.90
50570;DHT22;36525;49.398;7.614;2023-06-22T10:03:47;33.00;99.90
50570;DHT22;36525;49.398;7.614;2023-06-22T10:06:17;33.30;99.90
50570;DHT22;36525;49.398;7.614;2023-06-22T10:08:44;33.50;99.90
50570;DHT22;36525;49.398;7.614;2023-06-22T10:11:17;33.40;99.90
50570;DHT22;36525;49.398;7.614;2023-06-22T10:13:44;33.60;99.90
50570;DHT22;36525;49.398;7.614;2023-06-22T10:16:11;33.60;99.90
50570;DHT22;36525;49.398;7.614;2023-06-22T10:18:38;33.40;99.90
50570;DHT22;36525;49.398;7.614;2023-06-22T10:21:06;33.60;99.90
50570;DHT22;36525;49.398;7.614;2023-06-22T10:23:33;33.60;98.80
50570;DHT22;36525;49.398;7.614;2023-06-22T10:26:01;33.80;99.10
50570;DHT22;36525;49.398;7.614;2023-06-22T10:28:28;34.00;98.80
50570;DHT22;36525;49.398;7.614;2023-06-22T10:30:58;34.40;96.50
50570;DHT22;36525;49.398;7.614;2023-06-22T10:33:26;33.90;96.00
50570;DHT22;36525;49.398;7.614;2023-06-22T10:35:54;33.80;96.60
50570;DHT22;36525;49.398;7.614;2023-06-22T10:38:22;33.60;96.70
50570;DHT22;36525;49.398;7.614;2023-06-22T10:40:48;33.50;96.50
50570;DHT22;36525;49.398;7.614;2023-06-22T10:43:15;33.80;97.70
50570;DHT22;36525;49.398;7.614;2023-06-22T10:48:10;34.50;96.10
50570;DHT22;36525;49.398;7.614;2023-06-22T10:50:37;34.80;95.90
50570;DHT22;36525;49.398;7.614;2023-06-22T10:53:04;34.40;93.30
50570;DHT22;36525;49.398;7.614;2023-06-22T10:55:32;34.00;94.30
50570;DHT22;36525;49.398;7.614;2023-06-22T10:58:22;34.00;94.10
50570;DHT22;36525;49.398;7.614;2023-06-22T11:00:49;33.70;95.20
50570;DHT22;36525;49.398;7.614;2023-06-22T11:03:19;33.70;93.80
50570;DHT22;36525;49.398;7.614;2023-06-22T11:05:46;33.60;94.60
50570;DHT22;36525;49.398;7.614;2023-06-22T11:08:14;33.60;95.10
50570;DHT22;36525;49.398;7.614;2023-06-22T11:10:43;32.50;95.60
50570;DHT22;36525;49.398;7.614;2023-06-22T11:13:10;32.50;96.70
50570;DHT22;36525;49.398;7.614;2023-06-22T11:15:40;33.40;97.00
50570;DHT22;36525;49.398;7.614;2023-06-22T11:18:07;34.30;95.80
50570;DHT22;36525;49.398;7.614;2023-06-22T11:20:34;34.30;94.50
50570;DHT22;36525;49.398;7.614;2023-06-22T11:23:05;34.40;95.20
50570;DHT22;36525;49.398;7.614;2023-06-22T11:25:33;35.00;94.20
50570;DHT22;36525;49.398;7.614;2023-06-22T11:28:05;35.30;93.70
50570;DHT22;36525;49.398;7.614;2023-06-22T11:30:32;34.70;92.60
50570;DHT22;36525;49.398;7.614;2023-06-22T11:32:59;33.40;93.60
50570;DHT22;36525;49.398;7.614;2023-06-22T11:35:26;32.50;94.70
50570;DHT22;36525;49.398;7.614;2023-06-22T11:37:54;32.60;95.90
50570;DHT22;36525;49.398;7.614;2023-06-22T11:40:22;33.00;96.00
50570;DHT22;36525;49.398;7.614;2023-06-22T11:42:50;33.30;94.60
50570;DHT22;36525;49.398;7.614;2023-06-22T11:45:17;33.00;95.00
50570;DHT22;36525;49.398;7.614;2023-06-22T11:47:45;32.20;94.60
50570;DHT22;36525;49.398;7.614;2023-06-22T11:50:13;32.00;94.90
50570;DHT22;36525;49.398;7.614;2023-06-22T11:52:40;31.80;94.50
50570;DHT22;36525;49.398;7.614;2023-06-22T11:55:25;31.60;94.70
50570;DHT22;36525;49.398;7.614;2023-06-22T11:57:57;31.70;95.40
50570;DHT22;36525;49.398;7.614;2023-06-22T12:00:26;31.70;96.00
50570;DHT22;36525;49.398;7.614;2023-06-22T12:02:56;31.60;96.20
50570;DHT22;36525;49.398;7.614;2023-06-22T12:05:26;31.40;96.20
50570;DHT22;36525;49.398;7.614;2023-06-22T12:07:54;31.40;97.00
50570;DHT22;36525;49.398;7.614;2023-06-22T12:10:22;31.50;97.30
50570;DHT22;36525;49.398;7.614;2023-06-22T12:12:50;32.20;97.40
50570;DHT22;36525;49.398;7.614;2023-06-22T12:15:17;32.40;96.80
50570;DHT22;36525;49.398;7.614;2023-06-22T12:17:44;32.70;96.00
50570;DHT22;36525;49.398;7.614;2023-06-22T12:20:11;32.80;96.70
50570;DHT22;36525;49.398;7.614;2023-06-22T12:22:38;32.60;96.80
50570;DHT22;36525;49.398;7.614;2023-06-22T12:25:06;32.60;96.20
50570;DHT22;36525;49.398;7.614;2023-06-22T12:27:35;32.90;96.30
50570;DHT22;36525;49.398;7.614;2023-06-22T12:30:04;33.20;95.40
50570;DHT22;36525;49.398;7.614;2023-06-22T12:32:32;33.10;95.80
50570;DHT22;36525;49.398;7.614;2023-06-22T12:34:59;32.90;96.50
50570;DHT22;36525;49.398;7.614;2023-06-22T12:37:26;32.90;95.50
50570;DHT22;36525;49.398;7.614;2023-06-22T12:39:54;33.40;95.20
50570;DHT22;36525;49.398;7.614;2023-06-22T12:42:21;33.90;94.20
50570;DHT22;36525;49.398;7.614;2023-06-22T12:44:48;34.80;93.50
50570;DHT22;36525;49.398;7.614;2023-06-22T12:47:15;35.20;92.10
50570;DHT22;36525;49.398;7.614;2023-06-22T12:49:42;34.10;91.40
50570;DHT22;36525;49.398;7.614;2023-06-22T12:52:10;33.00;92.30
50570;DHT22;36525;49.398;7.614;2023-06-22T12:54:37;32.80;92.00
50570;DHT22;36525;49.398;7.614;2023-06-22T12:57:20;33.50;91.80
50570;DHT22;36525;49.398;7.614;2023-06-22T12:59:47;33.50;91.60
50570;DHT22;36525;49.398;7.614;2023-06-22T13:02:15;34.40;91.80
50570;DHT22;36525;49.398;7.614;2023-06-22T13:04:43;34.60;91.70
50570;DHT22;36525;49.398;7.614;2023-06-22T13:07:10;34.00;90.60
50570;DHT22;36525;49.398;7.614;2023-06-22T13:09:49;33.30;91.00
50570;DHT22;36525;49.398;7.614;2023-06-22T13:12:22;32.70;91.60
50570;DHT22;36525;49.398;7.614;2023-06-22T13:14:50;32.30;92.60
50570;DHT22;36525;49.398;7.614;2023-06-22T13:17:17;32.30;92.60
50570;DHT22;36525;49.398;7.614;2023-06-22T13:19:44;32.60;92.70
50570;DHT22;36525;49.398;7.614;2023-06-22T13:24:58;32.20;93.50
50570;DHT22;36525;49.398;7.614;2023-06-22T13:27:25;32.20;93.80
50570;DHT22;36525;49.398;7.614;2023-06-22T13:29:53;32.40;94.30
50570;DHT22;36525;49.398;7.614;2023-06-22T13:32:20;32.40;93.70
50570;DHT22;36525;49.398;7.614;2023-06-22T13:34:47;31.90;94.00
50570;DHT22;36525;49.398;7.614;2023-06-22T13:37:14;32.00;94.40
50570;DHT22;36525;49.398;7.614;2023-06-22T13:39:41;32.20;93.90
50570;DHT22;36525;49.398;7.614;2023-06-22T13:42:08;32.10;94.30
50570;DHT22;36525;49.398;7.614;2023-06-22T13:44:35;32.00;94.40
50570;DHT22;36525;49.398;7.614;2023-06-22T13:47:03;31.90;94.70
50570;DHT22;36525;49.398;7.614;2023-06-22T13:49:31;32.20;95.20
50570;DHT22;36525;49.398;7.614;2023-06-22T13:51:59;32.90;94.80
50570;DHT22;36525;49.398;7.614;2023-06-22T13:54:26;33.30;93.00
50570;DHT22;36525;49.398;7.614;2023-06-22T13:56:56;32.50;90.50
50570;DHT22;36525;49.398;7.614;2023-06-22T13:59:23;32.10;91.00
50570;DHT22;36525;49.398;7.614;2023-06-22T14:01:50;32.30;91.20
50570;DHT22;36525;49.398;7.614;2023-06-22T14:04:17;32.40;90.70
50570;DHT22;36525;49.398;7.614;2023-06-22T14:06:45;32.80;90.50
50570;DHT22;36525;49.398;7.614;2023-06-22T14:09:12;32.50;90.20
50570;DHT22;36525;49.398;7.614;2023-06-22T14:11:39;32.80;90.10
50570;DHT22;36525;49.398;7.614;2023-06-22T14:14:06;32.90;90.20
50570;DHT22;36525;49.398;7.614;2023-06-22T14:16:33;33.10;90.10
50570;DHT22;36525;49.398;7.614;2023-06-22T14:19:00;33.50;89.90
50570;DHT22;36525;49.398;7.614;2023-06-22T14:21:27;33.30;89.50
50570;DHT22;36525;49.398;7.614;2023-06-22T14:23:55;32.70;89.80
50570;DHT22;36525;49.398;7.614;2023-06-22T14:26:22;32.80;90.40
50570;DHT22;36525;49.398;7.614;2023-06-22T14:28:49;31.90;90.80
50570;DHT22;36525;49.398;7.614;2023-06-22T14:31:18;31.40;91.60
50570;DHT22;36525;49.398;7.614;2023-06-22T14:33:49;30.80;92.10
50570;DHT22;36525;49.398;7.614;2023-06-22T14:36:17;30.60;92.50
50570;DHT22;36525;49.398;7.614;2023-06-22T14:38:45;29.90;92.50
50570;DHT22;36525;49.398;7.614;2023-06-22T14:41:13;28.80;97.10
50570;DHT22;36525;49.398;7.614;2023-06-22T14:43:48;27.10;99.90
50570;DHT22;36525;49.398;7.614;2023-06-22T14:46:18;24.70;99.90
50570;DHT22;36525;49.398;7.614;2023-06-22T14:48:46;24.30;99.90
50570;DHT22;36525;49.398;7.614;2023-06-22T14:51:14;24.10;99.90
50570;DHT22;36525;49.398;7.614;2023-06-22T14:53:46;24.80;99.90
50570;DHT22;36525;49.398;7.614;2023-06-22T14:56:13;26.00;99.90
50570;DHT22;36525;49.398;7.614;2023-06-22T14:58:43;26.90;99.90
50570;DHT22;36525;49.398;7.614;2023-06-22T15:01:16;27.90;99.90
50570;DHT22;36525;49.398;7.614;2023-06-22T15:03:43;28.20;99.90
50570;DHT22;36525;49.398;7.614;2023-06-22T15:06:11;28.60;99.90
50570;DHT22;36525;49.398;7.614;2023-06-22T15:08:38;29.40;99.90
50570;DHT22;36525;49.398;7.614;2023-06-22T15:11:08;30.00;99.90
50570;DHT22;36525;49.398;7.614;2023-06-22T15:13:38;30.20;99.90
50570;DHT22;36525;49.398;7.614;2023-06-22T15:16:07;30.80;99.30
50570;DHT22;36525;49.398;7.614;2023-06-22T15:18:35;30.90;98.40
50570;DHT22;36525;49.398;7.614;2023-06-22T15:21:04;30.50;96.50
50570;DHT22;36525;49.398;7.614;2023-06-22T15:23:31;30.50;94.90
50570;DHT22;36525;49.398;7.614;2023-06-22T15:26:01;30.30;95.20
50570;DHT22;36525;49.398;7.614;2023-06-22T15:28:31;30.80;94.70
50570;DHT22;36525;49.398;7.614;2023-06-22T15:31:00;30.80;94.60
50570;DHT22;36525;49.398;7.614;2023-06-22T15:33:27;31.20;94.20
50570;DHT22;36525;49.398;7.614;2023-06-22T15:35:55;30.80;93.30
50570;DHT22;36525;49.398;7.614;2023-06-22T15:38:22;31.00;93.50
50570;DHT22;36525;49.398;7.614;2023-06-22T15:40:49;31.20;92.90
50570;DHT22;36525;49.398;7.614;2023-06-22T15:43:17;30.70;92.50
50570;DHT22;36525;49.398;7.614;2023-06-22T15:45:44;30.80;92.10
50570;DHT22;36525;49.398;7.614;2023-06-22T15:48:11;30.50;91.40